Time;durP1;ratioP1;P1;durP2;ratioP2;P2;SDS_P1;SDS_P2;PMS_P1;PMS_P2;Temp;Humidity;BMP_temperature;BMP_pressure;BME280_temperature;BME280_humidity;BME280_pressure;Samples;Min_cycle;Max_cycle;Signal;HPM_P1;HPM_P2
2022/04/06 00:00:50;;;;;;;0.77;0.40;;;17.40;62.40;;;;;;5219432;28;20198;-64
2022/04/06 00:03:43;;;;;;;0.60;0.50;;;17.40;62.40;;;;;;5223854;28;20197;-64
2022/04/06 00:06:36;;;;;;;1.10;0.40;;;17.40;62.40;;;;;;5226458;28;20702;-64
2022/04/06 00:09:29;;;;;;;0.70;0.40;;;17.40;62.40;;;;;;5225957;28;20217;-64
2022/04/06 00:12:22;;;;;;;0.70;0.40;;;17.40;62.40;;;;;;5225813;28;20224;-64
2022/04/06 00:15:14;;;;;;;0.40;0.37;;;17.40;62.40;;;;;;5227593;28;20212;-64
2022/04/06 00:18:06;;;;;;;0.70;0.50;;;17.40;62.40;;;;;;5226433;28;20262;-64
2022/04/06 00:20:58;;;;;;;0.47;0.40;;;17.40;62.40;;;;;;5226458;28;20193;-64
2022/04/06 00:23:50;;;;;;;0.50;0.40;;;17.40;62.40;;;;;;5226955;28;20322;-64
2022/04/06 00:26:44;;;;;;;0.83;0.30;;;17.40;62.40;;;;;;5226133;28;20198;-64
2022/04/06 00:29:36;;;;;;;0.30;0.30;;;17.40;62.40;;;;;;5257857;22;20233;-66
2022/04/06 00:32:28;;;;;;;0.63;0.40;;;17.40;62.40;;;;;;5224532;28;20221;-63
2022/04/06 00:35:30;;;;;;;0.90;0.47;;;17.40;62.40;;;;;;5226487;28;20591;-64
2022/04/06 00:38:23;;;;;;;1.30;0.60;;;17.40;62.40;;;;;;5228324;28;20196;-64
2022/04/06 00:41:15;;;;;;;0.63;0.50;;;17.40;62.40;;;;;;5227801;28;20221;-64
2022/04/06 00:44:14;;;;;;;0.67;0.30;;;17.40;62.40;;;;;;5208154;28;20197;-64
2022/04/06 00:47:07;;;;;;;0.67;0.40;;;17.40;62.40;;;;;;5226334;28;20665;-64
2022/04/06 00:50:00;;;;;;;0.87;0.50;;;17.40;62.40;;;;;;5223398;28;20243;-64
2022/04/06 00:52:56;;;;;;;0.60;0.50;;;17.40;63.10;;;;;;5225332;28;20732;-64
2022/04/06 00:55:49;;;;;;;0.40;0.40;;;17.40;62.40;;;;;;5225974;28;20195;-64
2022/04/06 00:58:41;;;;;;;1.10;0.57;;;17.40;62.50;;;;;;5225583;28;20201;-64
2022/04/06 01:01:34;;;;;;;1.13;0.57;;;17.40;62.50;;;;;;5220234;28;20309;-64
2022/04/06 01:04:27;;;;;;;1.23;0.50;;;17.40;62.50;;;;;;5220936;28;20207;-64
2022/04/06 01:07:20;;;;;;;0.60;0.40;;;17.40;62.50;;;;;;5245542;28;20261;-63
2022/04/06 01:10:12;;;;;;;1.30;0.60;;;17.40;62.50;;;;;;5237472;28;20209;-63
2022/04/06 01:13:04;;;;;;;0.83;0.57;;;17.40;62.50;;;;;;5225127;28;20217;-64
2022/04/06 01:15:56;;;;;;;0.73;0.40;;;17.40;62.50;;;;;;5227964;28;20224;-64
2022/04/06 01:18:50;;;;;;;0.50;0.50;;;17.40;62.50;;;;;;5225480;28;20679;-64
2022/04/06 01:21:42;;;;;;;0.43;0.40;;;17.40;62.40;;;;;;5233495;28;20278;-64
2022/04/06 01:24:35;;;;;;;0.80;0.40;;;17.40;62.40;;;;;;5214216;28;20197;-64
2022/04/06 01:27:28;;;;;;;1.40;0.50;;;17.40;62.50;;;;;;5205400;28;20205;-64
2022/04/06 01:30:20;;;;;;;1.20;0.60;;;17.40;62.50;;;;;;5224492;28;20696;-64
2022/04/06 01:33:13;;;;;;;1.87;0.40;;;17.40;62.50;;;;;;5225035;28;20217;-63
2022/04/06 01:36:05;;;;;;;0.80;0.43;;;17.40;62.50;;;;;;5204544;28;20810;-64
2022/04/06 01:38:57;;;;;;;0.87;0.33;;;17.40;62.50;;;;;;5204527;28;20729;-64
2022/04/06 01:41:51;;;;;;;0.50;0.30;;;17.40;62.50;;;;;;5203951;28;20193;-64
2022/04/06 01:44:44;;;;;;;0.30;0.30;;;17.40;62.50;;;;;;5205069;28;20204;-64
2022/04/06 01:47:36;;;;;;;0.40;0.30;;;17.40;62.50;;;;;;5205316;28;20194;-64
2022/04/06 01:53:37;;;;;;;0.70;0.40;;;17.40;62.50;;;;;;5231206;28;20248;-64
2022/04/06 01:56:29;;;;;;;1.53;0.53;;;17.40;62.50;;;;;;5245985;28;20188;-64
2022/04/06 01:59:23;;;;;;;2.53;0.40;;;17.40;62.50;;;;;;5245046;28;20212;-65
2022/04/06 02:02:18;;;;;;;0.83;0.37;;;17.40;62.50;;;;;;5228002;28;20634;-63
2022/04/06 02:05:12;;;;;;;0.50;0.50;;;17.40;62.50;;;;;;5204232;28;20204;-64
2022/04/06 02:08:04;;;;;;;1.07;0.40;;;17.40;62.50;;;;;;5204677;28;20283;-64
2022/04/06 02:10:56;;;;;;;0.70;0.50;;;17.40;62.50;;;;;;5218205;28;20221;-64
2022/04/06 02:13:48;;;;;;;0.47;0.40;;;17.40;62.50;;;;;;5219612;28;20331;-64
2022/04/06 02:16:42;;;;;;;0.70;0.50;;;17.40;62.60;;;;;;5223363;28;20572;-64
2022/04/06 02:19:36;;;;;;;1.27;0.60;;;17.40;62.50;;;;;;5225160;28;20338;-64
2022/04/06 02:22:28;;;;;;;0.47;0.47;;;17.40;62.50;;;;;;5225497;28;20738;-64
2022/04/06 02:25:20;;;;;;;2.00;0.60;;;17.40;62.50;;;;;;5225070;28;20576;-64
2022/04/06 02:28:12;;;;;;;0.67;0.43;;;17.40;62.50;;;;;;5224784;28;20665;-62
2022/04/06 02:31:04;;;;;;;0.70;0.40;;;17.40;62.50;;;;;;5224158;28;20220;-63
2022/04/06 02:33:58;;;;;;;0.40;0.40;;;17.40;62.50;;;;;;5224315;28;20221;-64
2022/04/06 02:36:50;;;;;;;0.30;0.30;;;17.40;62.60;;;;;;5224367;28;20197;-64
2022/04/06 02:39:42;;;;;;;0.60;0.50;;;17.40;62.50;;;;;;5228805;28;20220;-64
2022/04/06 02:42:34;;;;;;;1.10;0.40;;;17.30;62.50;;;;;;5224599;28;20569;-64
2022/04/06 02:45:26;;;;;;;0.40;0.37;;;17.40;62.50;;;;;;5224937;28;20212;-64
2022/04/06 02:48:18;;;;;;;0.67;0.30;;;17.40;62.50;;;;;;5224494;28;20683;-64
2022/04/06 02:51:12;;;;;;;0.80;0.40;;;17.40;62.50;;;;;;5223153;28;20589;-64
2022/04/06 02:54:05;;;;;;;0.70;0.30;;;17.30;62.50;;;;;;5224549;28;20213;-64
2022/04/06 02:56:57;;;;;;;0.90;0.50;;;17.40;62.50;;;;;;5223939;28;20197;-64
2022/04/06 02:59:49;;;;;;;1.20;0.47;;;17.40;62.50;;;;;;5224314;28;20216;-64
2022/04/06 03:02:41;;;;;;;0.30;0.30;;;17.40;62.60;;;;;;5224349;28;20560;-64
2022/04/06 03:05:33;;;;;;;1.67;0.60;;;17.40;62.60;;;;;;5223192;28;20193;-64
2022/04/06 03:08:26;;;;;;;0.60;0.53;;;17.40;62.50;;;;;;5223866;28;20197;-64
2022/04/06 03:11:19;;;;;;;0.50;0.50;;;17.40;62.60;;;;;;5223631;28;20704;-63
2022/04/06 03:14:11;;;;;;;1.33;0.60;;;17.40;62.60;;;;;;5224114;28;20688;-65
2022/04/06 03:17:03;;;;;;;1.17;0.50;;;17.30;62.50;;;;;;5221849;28;20229;-64
2022/04/06 03:19:55;;;;;;;0.67;0.50;;;17.30;62.50;;;;;;5225572;28;20230;-64
2022/04/06 03:22:47;;;;;;;2.00;0.80;;;17.40;62.60;;;;;;5221069;28;20664;-64
2022/04/06 03:25:40;;;;;;;2.33;0.53;;;17.40;62.60;;;;;;5239046;28;20192;-64
2022/04/06 03:28:33;;;;;;;0.73;0.40;;;17.40;62.60;;;;;;5246536;28;20189;-64
2022/04/06 03:31:25;;;;;;;1.13;0.60;;;17.40;62.60;;;;;;5247819;28;20650;-64
2022/04/06 03:34:17;;;;;;;0.70;0.50;;;17.30;62.50;;;;;;5248316;28;20510;-62
2022/04/06 03:37:09;;;;;;;1.23;0.60;;;17.40;62.60;;;;;;5248233;28;20290;-64
2022/04/06 03:40:02;;;;;;;1.07;0.50;;;17.40;62.60;;;;;;5248728;28;20223;-65
2022/04/06 03:42:55;;;;;;;0.90;0.50;;;17.40;62.60;;;;;;5246779;28;20220;-64
2022/04/06 03:45:47;;;;;;;1.47;0.60;;;17.40;62.60;;;;;;5247911;28;20204;-64
2022/04/06 03:48:39;;;;;;;1.23;0.60;;;17.40;62.50;;;;;;5248029;28;20659;-64
2022/04/06 03:51:31;;;;;;;1.17;0.70;;;17.40;62.50;;;;;;5231254;28;20202;-64
2022/04/06 03:54:23;;;;;;;2.10;0.43;;;17.40;62.50;;;;;;5223297;28;20221;-64
2022/04/06 03:57:16;;;;;;;0.67;0.40;;;17.40;62.50;;;;;;5247933;28;20197;-64
2022/04/06 04:00:12;;;;;;;1.53;0.60;;;17.40;62.50;;;;;;5247417;28;20269;-64
2022/04/06 04:03:05;;;;;;;0.80;0.67;;;17.40;62.50;;;;;;5240806;28;20182;-64
2022/04/06 04:05:57;;;;;;;1.40;0.70;;;17.40;62.50;;;;;;5227534;28;20197;-64
2022/04/06 04:08:49;;;;;;;2.17;0.70;;;17.50;62.60;;;;;;5227289;28;20296;-64
2022/04/06 04:11:42;;;;;;;0.50;0.50;;;17.50;62.60;;;;;;5226702;28;20201;-64
2022/04/06 04:14:34;;;;;;;1.43;0.67;;;17.40;62.50;;;;;;5227334;28;20213;-64
2022/04/06 04:17:28;;;;;;;0.97;0.60;;;17.40;62.50;;;;;;5227300;28;20691;-64
2022/04/06 04:20:20;;;;;;;1.90;0.90;;;17.40;62.50;;;;;;5226704;28;20217;-63
2022/04/06 04:23:12;;;;;;;0.67;0.67;;;17.40;62.50;;;;;;5226918;28;20247;-64
2022/04/06 04:26:04;;;;;;;1.03;0.77;;;17.50;62.60;;;;;;5206440;28;20198;-64
2022/04/06 04:28:56;;;;;;;2.07;0.60;;;17.50;62.60;;;;;;5208212;28;20306;-64
2022/04/06 04:31:48;;;;;;;0.90;0.63;;;17.40;62.50;;;;;;5226673;28;20266;-64
2022/04/06 04:34:42;;;;;;;1.00;0.60;;;17.40;62.50;;;;;;5226615;28;20588;-64
2022/04/06 04:37:34;;;;;;;1.10;0.90;;;17.50;62.60;;;;;;5226786;28;20208;-64
2022/04/06 04:40:26;;;;;;;1.77;0.80;;;17.50;62.50;;;;;;5225733;28;20600;-64
2022/04/06 04:43:18;;;;;;;1.50;0.50;;;17.50;62.50;;;;;;5226440;28;20189;-63
2022/04/06 04:46:11;;;;;;;0.93;0.70;;;17.50;62.60;;;;;;5243362;28;20660;-64
2022/04/06 04:49:03;;;;;;;1.43;0.80;;;17.50;62.50;;;;;;5244457;28;20192;-64
2022/04/06 04:51:56;;;;;;;1.00;0.77;;;17.50;62.60;;;;;;5235719;28;20197;-64
2022/04/06 04:54:48;;;;;;;0.70;0.70;;;17.50;62.60;;;;;;5246294;28;20631;-64
2022/04/06 04:57:40;;;;;;;1.20;0.80;;;17.50;62.50;;;;;;5246553;28;20280;-64
2022/04/06 05:00:33;;;;;;;1.67;0.93;;;17.50;62.50;;;;;;5246541;28;20218;-64
2022/04/06 05:03:25;;;;;;;1.10;0.97;;;17.50;62.60;;;;;;5245834;28;20193;-64
2022/04/06 05:06:17;;;;;;;1.43;0.70;;;17.50;62.60;;;;;;5246178;28;20192;-64
2022/04/06 05:09:10;;;;;;;1.93;0.83;;;17.50;62.60;;;;;;5246112;28;20196;-64
2022/04/06 05:12:02;;;;;;;1.87;1.20;;;17.50;62.60;;;;;;5245665;28;20197;-65
2022/04/06 05:14:54;;;;;;;1.80;0.87;;;17.50;62.60;;;;;;5246242;28;20212;-64
2022/04/06 05:17:47;;;;;;;1.00;0.70;;;17.50;62.60;;;;;;5246578;28;20648;-64
2022/04/06 05:20:39;;;;;;;1.73;0.87;;;17.50;62.60;;;;;;5242828;28;20722;-64
2022/04/06 05:23:31;;;;;;;1.50;0.90;;;17.50;62.60;;;;;;5226214;28;20192;-65
2022/04/06 05:26:25;;;;;;;1.10;0.60;;;17.50;62.60;;;;;;5225383;28;20200;-65
2022/04/06 05:29:17;;;;;;;1.97;1.00;;;17.50;62.60;;;;;;5233853;28;20188;-64
2022/04/06 05:32:09;;;;;;;1.77;0.70;;;17.50;62.70;;;;;;5229454;28;20266;-64
2022/04/06 05:35:02;;;;;;;1.27;0.63;;;17.50;62.70;;;;;;5225166;28;20221;-63
2022/04/06 05:37:57;;;;;;;2.07;0.83;;;17.50;62.60;;;;;;5226057;28;20197;-64
2022/04/06 05:40:49;;;;;;;1.87;0.90;;;17.50;62.70;;;;;;5224987;28;20592;-64
2022/04/06 05:43:43;;;;;;;1.33;0.80;;;17.50;62.60;;;;;;5224328;28;20189;-64
2022/04/06 05:46:35;;;;;;;3.27;1.33;;;17.50;62.50;;;;;;5223665;28;20657;-64
2022/04/06 05:49:27;;;;;;;1.67;0.80;;;17.50;62.50;;;;;;5219679;28;20219;-64
2022/04/06 05:52:19;;;;;;;2.10;1.30;;;17.50;62.50;;;;;;5222054;28;20205;-63
2022/04/06 05:55:12;;;;;;;2.13;1.47;;;17.50;62.50;;;;;;5244830;28;20229;-64
2022/04/06 05:58:04;;;;;;;1.87;1.20;;;17.50;62.50;;;;;;5221109;28;20197;-64
2022/04/06 06:00:58;;;;;;;4.30;1.30;;;17.50;62.50;;;;;;5204749;28;20604;-64
2022/04/06 06:03:50;;;;;;;1.87;1.10;;;17.50;62.50;;;;;;5209882;28;20193;-64
2022/04/06 06:06:42;;;;;;;1.53;1.03;;;17.50;62.50;;;;;;5218696;28;20276;-64
2022/04/06 06:09:34;;;;;;;1.90;1.17;;;17.50;62.50;;;;;;5221813;28;20209;-64
2022/04/06 06:12:26;;;;;;;1.07;0.93;;;17.50;63.10;;;;;;5224120;28;20193;-64
2022/04/06 06:15:19;;;;;;;1.40;1.20;;;17.50;62.50;;;;;;5223057;28;20221;-63
2022/04/06 06:18:12;;;;;;;3.57;1.27;;;17.50;62.50;;;;;;5221531;28;20193;-64
2022/04/06 06:21:05;;;;;;;1.30;0.93;;;17.40;62.40;;;;;;5223018;28;20217;-64
2022/04/06 06:23:59;;;;;;;2.60;1.07;;;17.40;62.40;;;;;;5224898;28;20200;-64
2022/04/06 06:26:53;;;;;;;1.20;1.00;;;17.50;62.50;;;;;;5225002;28;20193;-64
2022/04/06 06:29:45;;;;;;;2.30;1.07;;;17.50;62.50;;;;;;5247244;22;20319;-64
2022/04/06 06:32:37;;;;;;;2.47;1.20;;;17.40;62.70;;;;;;5231708;28;20560;-67
2022/04/06 06:35:31;;;;;;;1.93;1.20;;;17.50;62.80;;;;;;5241967;28;20254;-68
2022/04/06 06:38:23;;;;;;;2.07;0.90;;;17.50;62.80;;;;;;5238889;28;20672;-69
2022/04/06 06:41:15;;;;;;;1.07;0.90;;;17.50;62.80;;;;;;5259408;28;20580;-68
2022/04/06 06:44:07;;;;;;;2.87;1.30;;;17.50;62.70;;;;;;5258990;28;20302;-68
2022/04/06 06:46:59;;;;;;;3.00;1.10;;;17.50;62.80;;;;;;5228870;28;20271;-68
2022/04/06 06:49:52;;;;;;;2.73;1.13;;;17.50;62.70;;;;;;5250615;28;20224;-68
2022/04/06 06:52:46;;;;;;;3.27;1.40;;;17.50;62.70;;;;;;5224685;28;20196;-68
2022/04/06 06:55:38;;;;;;;2.57;1.40;;;17.50;62.70;;;;;;5222230;28;20594;-68
2022/04/06 06:58:30;;;;;;;2.37;1.33;;;17.50;62.70;;;;;;5221954;28;20572;-69
2022/04/06 07:01:22;;;;;;;1.50;0.97;;;17.50;62.70;;;;;;5221519;28;20308;-68
2022/04/06 07:04:14;;;;;;;1.90;0.90;;;17.50;62.70;;;;;;5226101;28;20227;-69
2022/04/06 07:07:06;;;;;;;2.93;1.13;;;17.50;62.60;;;;;;5226447;28;20194;-68
2022/04/06 07:10:00;;;;;;;1.60;0.90;;;17.50;62.70;;;;;;5226448;28;20708;-68
2022/04/06 07:12:54;;;;;;;1.80;1.10;;;17.50;62.70;;;;;;5229120;28;20272;-68
2022/04/06 07:15:46;;;;;;;2.97;1.17;;;17.50;62.70;;;;;;5251049;28;20705;-68
2022/04/06 07:18:38;;;;;;;2.43;1.00;;;17.50;62.70;;;;;;5259161;28;20200;-68
2022/04/06 07:21:31;;;;;;;2.13;1.00;;;17.50;62.70;;;;;;5265768;28;20298;-68
2022/04/06 07:24:26;;;;;;;1.60;1.07;;;17.50;62.70;;;;;;5239400;28;20196;-68
2022/04/06 07:27:21;;;;;;;1.93;0.90;;;17.50;62.70;;;;;;5245566;28;20200;-68
2022/04/06 07:30:14;;;;;;;2.57;1.00;;;17.50;62.70;;;;;;5245938;28;20224;-68
2022/04/06 07:33:09;;;;;;;2.53;0.90;;;17.50;62.70;;;;;;5244689;28;20303;-68
2022/04/06 07:36:01;;;;;;;3.27;1.17;;;17.50;62.70;;;;;;5245611;28;20192;-68
2022/04/06 07:38:53;;;;;;;2.10;1.10;;;17.50;62.70;;;;;;5248287;28;20196;-69
2022/04/06 07:41:45;;;;;;;3.23;1.17;;;17.60;62.80;;;;;;5237166;28;20236;-69
2022/04/06 07:44:38;;;;;;;2.33;1.00;;;17.50;62.70;;;;;;5246857;28;20711;-69
2022/04/06 07:47:31;;;;;;;2.67;1.27;;;17.50;62.70;;;;;;5244965;28;20561;-68
2022/04/06 07:50:24;;;;;;;1.90;1.00;;;17.50;62.70;;;;;;5251643;28;20227;-69
2022/04/06 07:53:17;;;;;;;1.40;1.13;;;17.50;62.70;;;;;;5244877;28;20625;-68
2022/04/06 07:56:09;;;;;;;2.40;1.13;;;17.50;62.70;;;;;;5244937;28;20193;-68
2022/04/06 07:59:02;;;;;;;1.93;0.90;;;17.50;62.70;;;;;;5245855;28;20740;-68
2022/04/06 08:01:55;;;;;;;2.50;0.97;;;17.50;62.70;;;;;;5245978;28;20224;-68
2022/04/06 08:04:47;;;;;;;1.83;1.00;;;17.50;62.70;;;;;;5245326;28;20245;-68
2022/04/06 08:07:44;;;;;;;1.33;1.00;;;17.50;62.70;;;;;;5246089;28;20208;-68
2022/04/06 08:10:36;;;;;;;2.27;1.10;;;17.50;62.70;;;;;;5245391;28;20224;-68
2022/04/06 08:13:28;;;;;;;2.50;1.27;;;17.50;62.70;;;;;;5245139;28;20304;-68
2022/04/06 08:16:21;;;;;;;2.63;1.40;;;17.50;62.70;;;;;;5245369;28;20202;-68
2022/04/06 08:19:14;;;;;;;1.77;1.20;;;17.50;62.70;;;;;;5245253;28;20196;-68
2022/04/06 08:22:07;;;;;;;2.37;0.97;;;17.50;62.70;;;;;;5228018;28;20650;-69
2022/04/06 08:25:00;;;;;;;2.60;1.10;;;17.50;62.80;;;;;;5245383;28;20449;-68
2022/04/06 08:27:52;;;;;;;2.23;1.43;;;17.50;62.70;;;;;;5245680;28;20200;-68
2022/04/06 08:30:46;;;;;;;2.00;1.07;;;17.50;62.70;;;;;;5223971;28;20242;-68
2022/04/06 08:33:38;;;;;;;2.43;1.20;;;17.50;62.70;;;;;;5223707;28;20197;-68
2022/04/06 08:36:34;;;;;;;2.97;0.80;;;17.50;62.70;;;;;;5223622;28;20883;-68
2022/04/06 08:39:27;;;;;;;1.50;0.97;;;17.50;62.70;;;;;;5223681;28;20483;-68
2022/04/06 08:42:20;;;;;;;2.63;1.07;;;17.50;62.70;;;;;;5242031;28;20199;-68
2022/04/06 08:45:12;;;;;;;3.13;1.23;;;17.50;62.70;;;;;;5247207;28;20196;-68
2022/04/06 08:48:07;;;;;;;1.97;1.00;;;17.50;62.70;;;;;;5252712;28;20195;-69
2022/04/06 08:51:01;;;;;;;2.73;0.97;;;17.50;62.70;;;;;;5255084;28;20216;-68
2022/04/06 08:53:54;;;;;;;1.50;1.10;;;17.50;62.70;;;;;;5248778;28;20203;-68
2022/04/06 08:56:47;;;;;;;2.13;0.97;;;17.60;62.80;;;;;;5237152;28;20204;-67
2022/04/06 08:59:39;;;;;;;2.10;1.10;;;17.50;62.70;;;;;;5244241;28;20193;-67
2022/04/06 09:02:31;;;;;;;1.87;1.00;;;17.50;62.70;;;;;;5237821;28;20193;-67
2022/04/06 09:05:26;;;;;;;1.43;0.97;;;17.60;62.80;;;;;;5230570;28;20262;-67
2022/04/06 09:08:18;;;;;;;1.33;0.97;;;17.50;62.80;;;;;;5231419;28;20201;-66
2022/04/06 09:11:13;;;;;;;2.53;1.10;;;17.50;62.80;;;;;;5228696;28;20591;-67
2022/04/06 09:14:05;;;;;;;3.17;1.03;;;17.60;62.90;;;;;;5227570;28;20197;-67
2022/04/06 09:17:02;;;;;;;3.77;1.10;;;17.50;62.80;;;;;;5221457;28;20642;-67
2022/04/06 09:19:55;;;;;;;1.63;0.90;;;17.60;62.90;;;;;;5222752;28;20248;-67
2022/04/06 09:22:48;;;;;;;2.57;0.90;;;17.60;62.90;;;;;;5229169;28;20213;-67
2022/04/06 09:25:42;;;;;;;2.03;1.00;;;17.60;62.90;;;;;;5230092;28;20232;-67
2022/04/06 09:28:39;;;;;;;2.30;0.80;;;17.60;63.00;;;;;;5244033;28;20196;-67
2022/04/06 09:31:38;;;;;;;1.67;0.90;;;17.60;62.90;;;;;;5250640;28;20228;-68
2022/04/06 09:34:32;;;;;;;1.40;0.90;;;17.60;62.90;;;;;;5220936;28;20695;-67
2022/04/06 09:37:28;;;;;;;1.90;0.83;;;17.60;63.00;;;;;;5223084;28;20197;-66
2022/04/06 09:40:20;;;;;;;1.27;0.90;;;17.60;63.00;;;;;;5234193;28;20366;-66
2022/04/06 09:43:25;;;;;;;3.67;1.30;;;17.60;63.00;;;;;;5233054;28;20196;-68
2022/04/06 09:49:31;;;;;;;1.83;0.90;;;17.60;63.00;;;;;;5226534;28;20208;-67
2022/04/06 09:52:23;;;;;;;2.77;1.10;;;17.60;63.00;;;;;;5226235;28;20275;-67
2022/04/06 09:55:17;;;;;;;1.63;1.10;;;17.60;63.00;;;;;;5229968;28;20209;-67
2022/04/06 09:58:10;;;;;;;1.73;1.00;;;17.60;63.00;;;;;;5240843;28;20212;-67
2022/04/06 10:01:03;;;;;;;1.70;0.83;;;17.60;63.00;;;;;;5243392;28;20224;-68
2022/04/06 10:04:02;;;;;;;1.37;0.80;;;17.60;63.00;;;;;;5243648;28;20695;-67
2022/04/06 10:06:57;;;;;;;2.10;0.70;;;17.60;63.00;;;;;;5242524;28;20196;-67
2022/04/06 10:09:51;;;;;;;1.40;0.90;;;17.60;63.00;;;;;;5243637;28;20704;-67
2022/04/06 10:12:44;;;;;;;2.17;0.93;;;17.60;63.00;;;;;;5243015;28;20200;-67
2022/04/06 10:15:38;;;;;;;1.87;0.83;;;17.60;63.00;;;;;;5242329;28;20212;-67
2022/04/06 10:18:34;;;;;;;1.47;1.00;;;17.60;63.00;;;;;;5242894;28;20207;-66
2022/04/06 10:21:34;;;;;;;1.43;0.80;;;17.60;63.00;;;;;;5241439;28;20220;-67
2022/04/06 10:24:37;;;;;;;2.50;1.07;;;17.60;63.00;;;;;;5236824;28;20196;-67
2022/04/06 10:27:33;;;;;;;1.60;0.80;;;17.60;63.00;;;;;;5236887;28;20204;-66
2022/04/06 10:30:27;;;;;;;1.97;0.90;;;17.60;63.00;;;;;;5242709;28;20658;-67
2022/04/06 10:33:21;;;;;;;1.27;0.93;;;17.60;63.00;;;;;;5242625;28;20317;-67
2022/04/06 10:36:20;;;;;;;2.50;1.20;;;17.60;62.90;;;;;;5261628;28;20718;-67
2022/04/06 10:39:16;;;;;;;1.63;0.70;;;17.60;63.00;;;;;;5266533;28;20286;-67
2022/04/06 10:42:19;;;;;;;1.20;0.80;;;17.60;62.90;;;;;;5266979;28;20653;-67
2022/04/06 10:45:36;;;;;;;0.90;0.80;;;17.60;62.90;;;;;;5268138;28;20198;-67
2022/04/06 10:48:28;;;;;;;1.90;0.90;;;17.60;62.90;;;;;;5267928;28;20732;-67
2022/04/06 10:51:33;;;;;;;2.20;1.00;;;17.60;62.90;;;;;;5253261;28;20591;-67
2022/04/06 10:54:42;;;;;;;1.83;0.80;;;17.60;62.90;;;;;;5247871;28;20566;-67
2022/04/06 10:57:56;;;;;;;1.40;1.03;;;17.60;62.90;;;;;;5245764;28;20655;-67
2022/04/06 11:01:15;;;;;;;2.23;0.90;;;17.60;63.00;;;;;;5246627;28;20220;-69
2022/04/06 11:04:16;;;;;;;3.13;1.17;;;17.60;62.90;;;;;;5247112;28;20232;-67
2022/04/06 11:07:09;;;;;;;1.37;0.90;;;17.60;63.00;;;;;;5225616;28;20276;-67
2022/04/06 11:10:12;;;;;;;2.27;1.00;;;17.60;63.00;;;;;;5239081;28;20385;-67
2022/04/06 11:13:06;;;;;;;2.53;0.97;;;17.60;63.00;;;;;;5246362;28;20201;-67
2022/04/06 11:15:58;;;;;;;1.90;0.90;;;17.60;63.00;;;;;;5247090;28;20273;-67
2022/04/06 11:18:58;;;;;;;2.40;0.80;;;17.60;63.00;;;;;;5240944;28;20196;-67
2022/04/06 11:21:52;;;;;;;2.00;1.17;;;17.60;63.00;;;;;;5246279;28;20587;-67
2022/04/06 11:24:44;;;;;;;1.13;0.67;;;17.60;63.00;;;;;;5232921;28;20197;-67
2022/04/06 11:27:40;;;;;;;2.40;0.90;;;17.60;63.00;;;;;;5225185;28;20197;-67
2022/04/06 11:30:34;;;;;;;1.63;0.70;;;17.60;63.00;;;;;;5233599;28;20226;-66
2022/04/06 11:33:38;;;;;;;2.27;1.30;;;17.60;63.00;;;;;;5231202;28;20696;-67
2022/04/06 11:36:37;;;;;;;1.47;0.87;;;17.60;63.00;;;;;;5246739;28;20232;-67
2022/04/06 11:39:30;;;;;;;1.67;0.80;;;17.60;63.00;;;;;;5245605;28;20200;-67
2022/04/06 11:42:23;;;;;;;1.40;0.80;;;17.60;63.00;;;;;;5239294;28;20212;-67
2022/04/06 11:45:21;;;;;;;1.80;1.03;;;17.60;63.00;;;;;;5247704;28;20189;-67
2022/04/06 11:48:14;;;;;;;2.17;0.70;;;17.60;63.00;;;;;;5243892;28;20354;-67
2022/04/06 11:51:06;;;;;;;1.40;0.70;;;17.60;63.00;;;;;;5230440;28;20270;-67
2022/04/06 11:53:58;;;;;;;2.03;1.07;;;17.60;63.00;;;;;;5244441;28;20717;-67
2022/04/06 11:56:51;;;;;;;1.90;0.80;;;17.60;63.00;;;;;;5244789;28;20224;-67
2022/04/06 11:59:52;;;;;;;2.33;0.90;;;17.60;63.00;;;;;;5246377;28;20188;-67
2022/04/06 12:02:53;;;;;;;4.28;1.80;;;17.60;63.00;;;;;;5245577;28;20418;-65
2022/04/06 12:05:48;;;;;;;18.10;3.53;;;17.60;62.00;;;;;;5243401;28;20196;-66
2022/04/06 12:08:40;;;;;;;7.90;2.35;;;17.60;60.90;;;;;;5245992;28;20418;-66
2022/04/06 12:11:32;;;;;;;5.77;1.63;;;17.70;60.40;;;;;;5247886;28;20212;-65
2022/04/06 12:14:25;;;;;;;3.70;1.37;;;17.60;61.00;;;;;;5267145;28;20192;-66
2022/04/06 12:17:17;;;;;;;5.47;1.83;;;17.60;61.50;;;;;;5267961;28;20231;-66
2022/04/06 12:20:25;;;;;;;3.30;1.47;;;17.60;61.90;;;;;;5237924;28;20217;-66
2022/04/06 12:23:18;;;;;;;5.83;1.80;;;17.60;62.00;;;;;;5238594;28;20567;-65
2022/04/06 12:26:11;;;;;;;4.77;1.90;;;17.60;62.20;;;;;;5230899;28;20197;-66
2022/04/06 12:29:03;;;;;;;3.50;1.40;;;17.60;62.30;;;;;;5221070;28;20205;-66
2022/04/06 12:31:55;;;;;;;5.33;2.03;;;17.60;62.40;;;;;;5245974;22;20225;-67
2022/04/06 12:34:47;;;;;;;4.50;1.13;;;17.60;62.50;;;;;;5204398;28;20210;-66
2022/04/06 12:37:41;;;;;;;5.13;1.50;;;17.50;62.50;;;;;;5205144;28;20198;-66
2022/04/06 12:40:33;;;;;;;3.40;1.30;;;17.50;62.60;;;;;;5203389;28;20212;-67
2022/04/06 12:43:26;;;;;;;3.10;1.53;;;17.50;62.70;;;;;;5199148;28;20258;-66
2022/04/06 12:46:36;;;;;;;7.60;1.87;;;17.50;62.70;;;;;;5185671;28;20203;-66
2022/04/06 12:49:32;;;;;;;5.60;1.77;;;17.50;62.80;;;;;;5185858;28;20199;-67
2022/04/06 12:52:26;;;;;;;6.00;1.67;;;17.50;63.40;;;;;;5194703;28;20732;-65
2022/04/06 12:55:20;;;;;;;2.63;1.20;;;17.50;62.90;;;;;;5185858;28;20218;-66
2022/04/06 12:58:16;;;;;;;3.80;1.23;;;17.50;62.90;;;;;;5185814;28;20290;-67
2022/04/06 13:01:11;;;;;;;3.50;1.40;;;17.50;63.00;;;;;;5184524;28;20281;-66
2022/04/06 13:04:03;;;;;;;2.87;1.27;;;17.50;63.00;;;;;;5204376;28;20577;-65
2022/04/06 13:06:56;;;;;;;3.57;1.30;;;17.50;63.10;;;;;;5205725;28;20236;-66
2022/04/06 13:09:53;;;;;;;4.57;1.60;;;17.50;63.10;;;;;;5204838;28;20328;-66
2022/04/06 13:12:48;;;;;;;4.07;1.37;;;17.50;63.10;;;;;;5186136;28;20214;-68
2022/04/06 13:15:40;;;;;;;1.80;1.07;;;17.50;63.10;;;;;;5184509;28;20210;-65
2022/04/06 13:18:32;;;;;;;1.40;1.10;;;17.50;63.10;;;;;;5198342;28;20223;-67
2022/04/06 13:21:25;;;;;;;4.23;1.40;;;17.50;63.10;;;;;;5204543;28;20194;-65
2022/04/06 13:24:17;;;;;;;3.77;1.10;;;17.50;63.10;;;;;;5206025;28;20198;-67
2022/04/06 13:27:10;;;;;;;2.53;1.30;;;17.50;63.10;;;;;;5207309;28;20190;-66
2022/04/06 13:30:04;;;;;;;1.63;0.97;;;17.60;63.10;;;;;;5204703;28;20198;-66
2022/04/06 13:32:57;;;;;;;2.57;1.00;;;17.50;63.00;;;;;;5205123;28;20696;-67
2022/04/06 13:35:50;;;;;;;1.67;1.13;;;17.50;63.00;;;;;;5200175;28;20336;-67
2022/04/06 13:38:42;;;;;;;3.00;1.43;;;17.60;63.10;;;;;;5203400;28;20391;-67
2022/04/06 13:41:35;;;;;;;3.60;1.20;;;17.50;63.00;;;;;;5199580;28;20195;-66
2022/04/06 13:44:29;;;;;;;4.43;1.50;;;17.60;63.10;;;;;;5184784;28;20207;-66
2022/04/06 13:47:23;;;;;;;2.23;1.10;;;17.60;63.10;;;;;;5210652;28;20273;-67
2022/04/06 13:50:19;;;;;;;2.13;1.17;;;17.60;63.10;;;;;;5200847;28;20598;-66
2022/04/06 13:53:11;;;;;;;2.27;1.20;;;17.50;63.00;;;;;;5187693;28;20221;-67
2022/04/06 13:56:03;;;;;;;1.73;0.90;;;17.60;63.10;;;;;;5184415;28;20594;-66
2022/04/06 13:58:55;;;;;;;2.80;1.27;;;17.60;63.10;;;;;;5183749;28;20191;-66
2022/04/06 14:01:48;;;;;;;2.60;1.20;;;17.60;63.10;;;;;;5184064;28;20673;-67
2022/04/06 14:04:41;;;;;;;2.20;1.20;;;17.60;63.00;;;;;;5184418;28;20205;-67
2022/04/06 14:07:34;;;;;;;1.40;0.70;;;17.60;63.10;;;;;;5184244;28;20208;-67
2022/04/06 14:10:26;;;;;;;1.67;0.80;;;17.60;63.10;;;;;;5186989;28;20681;-65
2022/04/06 14:13:21;;;;;;;2.03;1.10;;;17.60;63.00;;;;;;5204778;28;20245;-66
2022/04/06 14:16:13;;;;;;;3.63;1.30;;;17.60;63.10;;;;;;5203742;28;20717;-66
2022/04/06 14:19:07;;;;;;;2.03;0.80;;;17.60;63.10;;;;;;5203786;28;20201;-66
2022/04/06 14:22:00;;;;;;;2.13;0.83;;;17.60;63.10;;;;;;5205402;28;20222;-66
2022/04/06 14:28:02;;;;;;;1.10;0.80;;;17.60;63.10;;;;;;5201991;28;20194;-66
2022/04/06 14:30:54;;;;;;;2.87;0.97;;;17.60;63.10;;;;;;5203605;28;20202;-66
2022/04/06 14:33:47;;;;;;;0.93;0.70;;;17.60;63.10;;;;;;5198643;28;20224;-66
2022/04/06 14:36:40;;;;;;;2.27;1.20;;;17.60;63.10;;;;;;5204785;28;20214;-66
2022/04/06 14:39:33;;;;;;;2.27;0.90;;;17.60;63.10;;;;;;5203609;28;20681;-69
2022/04/06 14:42:26;;;;;;;2.83;1.10;;;17.60;63.10;;;;;;5202885;28;20348;-68
2022/04/06 14:45:18;;;;;;;3.07;1.10;;;17.60;63.10;;;;;;5202841;28;20316;-68
2022/04/06 14:48:10;;;;;;;2.43;1.10;;;17.60;63.10;;;;;;5203755;28;20222;-69
2022/04/06 14:51:03;;;;;;;1.73;1.00;;;17.60;63.10;;;;;;5202625;28;20565;-67
2022/04/06 14:53:55;;;;;;;2.67;0.90;;;17.60;63.70;;;;;;5202501;28;20213;-69
2022/04/06 14:56:48;;;;;;;1.47;1.07;;;17.60;63.00;;;;;;5183649;28;20214;-67
2022/04/06 14:59:41;;;;;;;4.10;1.07;;;17.60;63.10;;;;;;5183075;28;20201;-66
2022/04/06 15:02:33;;;;;;;3.97;1.27;;;17.60;63.10;;;;;;5183234;28;20218;-66
2022/04/06 15:05:25;;;;;;;2.30;1.10;;;17.60;63.10;;;;;;5184175;28;20665;-66
2022/04/06 15:08:17;;;;;;;2.03;0.90;;;17.60;63.10;;;;;;5182948;28;20294;-67
2022/04/06 15:11:09;;;;;;;2.87;0.90;;;17.60;63.20;;;;;;5186750;28;20684;-67
2022/04/06 15:14:03;;;;;;;3.27;1.10;;;17.60;63.20;;;;;;5203203;28;20214;-67